createdAt,value
2019-03-01T00:00:36.268Z,991.7
2019-03-01T00:01:36.939Z,991.7
2019-03-01T00:02:37.612Z,991.7
2019-03-01T00:03:38.282Z,991.7
2019-03-01T00:04:38.954Z,991.7
2019-03-01T00:05:39.625Z,991.7
2019-03-01T00:06:40.297Z,991.7
2019-03-01T00:07:40.967Z,991.7
2019-03-01T00:08:41.638Z,991.6
2019-03-01T00:09:42.309Z,991.6
2019-03-01T00:10:42.981Z,991.6
2019-03-01T00:11:43.652Z,991.5
2019-03-01T00:12:44.323Z,991.5
2019-03-01T00:13:44.993Z,991.5
2019-03-01T00:14:45.663Z,991.6
2019-03-01T00:15:46.338Z,991.5
2019-03-01T00:16:47.007Z,991.5
2019-03-01T00:17:47.680Z,991.4
2019-03-01T00:18:48.398Z,991.4
2019-03-01T00:19:49.070Z,991.4
2019-03-01T00:20:49.741Z,991.4
2019-03-01T00:21:50.410Z,991.4
2019-03-01T00:22:51.084Z,991.4
2019-03-01T00:23:51.755Z,991.3
2019-03-01T00:24:52.425Z,991.3
2019-03-01T00:25:53.107Z,991.3
2019-03-01T00:26:53.768Z,991.3
2019-03-01T00:27:54.488Z,991.3
2019-03-01T00:28:55.161Z,991.3
2019-03-01T00:29:55.847Z,991.3
2019-03-01T00:30:56.548Z,991.3
2019-03-01T00:31:57.227Z,991.3
2019-03-01T00:32:57.939Z,991.3
2019-03-01T00:33:58.611Z,991.3
2019-03-01T00:34:59.276Z,991.3
2019-03-01T00:35:59.949Z,991.3
2019-03-01T00:37:00.617Z,991.2
2019-03-01T00:38:01.290Z,991.3
2019-03-01T00:39:02.009Z,991.2
2019-03-01T00:40:02.681Z,991.2
2019-03-01T00:41:03.351Z,991.2
2019-03-01T00:42:04.021Z,991.2
2019-03-01T00:43:04.691Z,991.2
2019-03-01T00:44:05.410Z,991.3
2019-03-01T00:45:06.081Z,991.3
2019-03-01T00:46:06.751Z,991.2
2019-03-01T00:47:07.422Z,991.2
2019-03-01T00:48:08.094Z,991.2
2019-03-01T00:49:08.764Z,991.2
2019-03-01T00:50:09.436Z,991.2
2019-03-01T00:51:10.106Z,991.2
2019-03-01T00:52:10.781Z,991.2
2019-03-01T00:53:11.499Z,991.2
2019-03-01T00:54:12.181Z,991.2
2019-03-01T00:55:12.831Z,991.2
2019-03-01T00:56:13.501Z,991.2
2019-03-01T00:57:14.174Z,991.2
2019-03-01T00:58:14.848Z,991.2
2019-03-01T00:59:15.517Z,991.3
2019-03-01T01:00:16.188Z,991.2
2019-03-01T01:01:16.906Z,991.2
2019-03-01T01:02:17.571Z,991.1
2019-03-01T01:03:18.241Z,991.1
2019-03-01T01:04:18.911Z,991.1
2019-03-01T01:05:19.582Z,991.1
2019-03-01T01:06:20.254Z,991.1
2019-03-01T01:07:20.930Z,991.1
2019-03-01T01:08:21.653Z,991.1
2019-03-01T01:09:22.306Z,991.1
2019-03-01T01:10:22.979Z,991.1
2019-03-01T01:11:23.649Z,991.1
2019-03-01T01:12:24.326Z,991.1
2019-03-01T01:13:24.991Z,991.2
2019-03-01T01:14:25.662Z,991.0
2019-03-01T01:15:26.334Z,991.1
2019-03-01T01:16:27.006Z,991.1
2019-03-01T01:17:27.676Z,991.0
2019-03-01T01:18:28.346Z,991.0
2019-03-01T01:19:29.019Z,991.0
2019-03-01T01:20:29.689Z,991.1
2019-03-01T01:21:30.361Z,991.1
2019-03-01T01:22:31.080Z,991.0
2019-03-01T01:23:31.752Z,991.0
2019-03-01T01:24:32.428Z,991.0
2019-03-01T01:25:33.094Z,991.0
2019-03-01T01:26:33.764Z,991.0
2019-03-01T01:27:34.437Z,991.1
2019-03-01T01:28:35.105Z,991.1
2019-03-01T01:29:35.776Z,991.1
2019-03-01T01:30:36.451Z,991.0
2019-03-01T01:31:37.120Z,991.0
2019-03-01T01:32:37.790Z,991.0
2019-03-01T01:33:38.460Z,991.0
2019-03-01T01:34:39.131Z,991.0
2019-03-01T01:35:39.802Z,991.0
2019-03-01T01:36:40.475Z,991.0
2019-03-01T01:37:41.142Z,991.0
2019-03-01T01:38:41.814Z,991.0
2019-03-01T01:39:42.483Z,991.0
2019-03-01T01:40:43.154Z,991.0
2019-03-01T01:41:43.832Z,991.0
2019-03-01T01:42:44.498Z,990.9
2019-03-01T01:43:45.166Z,990.9
2019-03-01T01:44:45.837Z,990.8
2019-03-01T01:45:46.508Z,990.8
2019-03-01T01:46:47.177Z,990.8
2019-03-01T01:47:47.845Z,990.8
2019-03-01T01:48:48.566Z,990.8
2019-03-01T01:49:49.238Z,990.7
2019-03-01T01:50:49.909Z,990.7
2019-03-01T01:51:50.576Z,990.7
2019-03-01T01:52:51.247Z,990.7
2019-03-01T01:53:51.960Z,990.7
2019-03-01T01:54:52.587Z,990.7
2019-03-01T01:55:53.256Z,990.6
2019-03-01T01:56:53.927Z,990.7
2019-03-01T01:57:54.600Z,990.7
2019-03-01T01:58:55.268Z,990.6
2019-03-01T01:59:55.936Z,990.7
2019-03-01T02:00:56.606Z,990.7
2019-03-01T02:01:57.281Z,990.6
2019-03-01T02:02:57.949Z,990.6
2019-03-01T02:03:58.617Z,990.6
2019-03-01T02:04:59.286Z,990.6
2019-03-01T02:05:59.958Z,990.6
2019-03-01T02:07:00.629Z,990.7
2019-03-01T02:08:01.301Z,990.6
2019-03-01T02:09:02.017Z,990.6
2019-03-01T02:10:02.688Z,990.6
2019-03-01T02:11:03.375Z,990.6
2019-03-01T02:12:04.028Z,990.6
2019-03-01T02:13:04.695Z,990.6
2019-03-01T02:14:05.417Z,990.6
2019-03-01T02:15:06.087Z,990.5
2019-03-01T02:16:06.758Z,990.5
2019-03-01T02:17:07.425Z,990.5
2019-03-01T02:18:08.096Z,990.4
2019-03-01T02:19:08.816Z,990.4
2019-03-01T02:20:09.487Z,990.4
2019-03-01T02:21:10.153Z,990.4
2019-03-01T02:22:10.829Z,990.4
2019-03-01T02:23:11.493Z,990.4
2019-03-01T02:24:12.163Z,990.4
2019-03-01T02:25:12.833Z,990.3
2019-03-01T02:26:13.505Z,990.4
2019-03-01T02:27:14.174Z,990.3
2019-03-01T02:28:14.848Z,990.4
2019-03-01T02:29:15.513Z,990.3
2019-03-01T02:30:16.185Z,990.3
2019-03-01T02:31:16.904Z,990.3
2019-03-01T02:32:17.575Z,990.3
2019-03-01T02:33:18.242Z,990.3
2019-03-01T02:34:18.976Z,990.3
2019-03-01T02:35:19.636Z,990.3
2019-03-01T02:36:20.299Z,990.3
2019-03-01T02:37:20.968Z,990.3
2019-03-01T02:38:21.642Z,990.3
2019-03-01T02:39:22.309Z,990.3
2019-03-01T02:40:22.979Z,990.3
2019-03-01T02:41:23.662Z,990.3
2019-03-01T02:42:24.319Z,990.3
2019-03-01T02:43:24.992Z,990.3
2019-03-01T02:44:25.724Z,990.2
2019-03-01T02:45:26.376Z,990.3
2019-03-01T02:46:27.047Z,990.2
2019-03-01T02:47:27.717Z,990.2
2019-03-01T02:48:28.391Z,990.2
2019-03-01T02:49:29.061Z,990.2
2019-03-01T02:50:29.743Z,990.2
2019-03-01T02:51:30.448Z,990.1
2019-03-01T02:52:31.114Z,990.1
2019-03-01T02:53:31.785Z,990.1
2019-03-01T02:54:32.457Z,990.1
2019-03-01T02:55:33.127Z,990.1
2019-03-01T02:56:33.806Z,990.1
2019-03-01T02:57:34.520Z,990.1
2019-03-01T02:58:35.234Z,990.1
2019-03-01T02:59:35.905Z,990.1
2019-03-01T03:00:36.633Z,990.1
2019-03-01T03:01:37.252Z,990.1
2019-03-01T03:02:37.923Z,990.1
2019-03-01T03:03:38.592Z,990.0
2019-03-01T03:04:39.292Z,990.0
2019-03-01T03:05:39.982Z,990.0
2019-03-01T03:06:40.654Z,990.0
2019-03-01T03:07:41.324Z,990.0
2019-03-01T03:08:41.995Z,990.0
2019-03-01T03:09:42.668Z,990.0
2019-03-01T03:10:43.343Z,989.9
2019-03-01T03:11:44.053Z,989.9
2019-03-01T03:12:44.723Z,990.0
2019-03-01T03:13:45.394Z,989.9
2019-03-01T03:14:46.064Z,990.0
2019-03-01T03:15:46.735Z,989.9
2019-03-01T03:16:47.404Z,989.9
2019-03-01T03:17:48.075Z,989.9
2019-03-01T03:18:48.795Z,990.0
2019-03-01T03:19:49.463Z,989.9
2019-03-01T03:20:50.136Z,990.0
2019-03-01T03:21:50.806Z,989.9
2019-03-01T03:22:51.477Z,989.9
2019-03-01T03:23:52.146Z,989.9
2019-03-01T03:24:52.868Z,989.9
2019-03-01T03:25:53.533Z,989.9
2019-03-01T03:26:54.204Z,989.9
2019-03-01T03:27:54.875Z,989.9
2019-03-01T03:28:55.544Z,989.9
2019-03-01T03:29:56.215Z,989.8
2019-03-01T03:30:56.887Z,989.7
2019-03-01T03:31:57.566Z,989.8
2019-03-01T03:32:58.234Z,989.8
2019-03-01T03:33:58.897Z,989.8
2019-03-01T03:34:59.573Z,989.7
2019-03-01T03:36:00.238Z,989.7
2019-03-01T03:37:00.910Z,989.7
2019-03-01T03:38:01.588Z,989.7
2019-03-01T03:39:02.249Z,989.7
2019-03-01T03:40:02.920Z,989.7
2019-03-01T03:41:03.591Z,989.7
2019-03-01T03:42:04.260Z,989.7
2019-03-01T03:43:04.930Z,989.7
2019-03-01T03:44:05.607Z,989.7
2019-03-01T03:45:06.272Z,989.7
2019-03-01T03:46:06.944Z,989.7
2019-03-01T03:47:07.612Z,989.7
2019-03-01T03:48:08.284Z,989.6
2019-03-01T03:49:08.955Z,989.6
2019-03-01T03:50:09.627Z,989.6
2019-03-01T03:51:10.296Z,989.6
2019-03-01T03:52:10.967Z,989.6
2019-03-01T03:53:11.636Z,989.6
2019-03-01T03:54:12.308Z,989.6
2019-03-01T03:55:12.978Z,989.6
2019-03-01T03:56:13.648Z,989.6
2019-03-01T03:57:14.317Z,989.6
2019-03-01T03:58:14.987Z,989.5
2019-03-01T03:59:15.658Z,989.5
2019-03-01T04:00:16.326Z,989.5
2019-03-01T04:01:16.997Z,989.5
2019-03-01T04:02:17.669Z,989.5
2019-03-01T04:03:18.389Z,989.5
2019-03-01T04:04:19.063Z,989.5
2019-03-01T04:05:19.740Z,989.5
2019-03-01T04:06:20.450Z,989.4
2019-03-01T04:07:21.115Z,989.5
2019-03-01T04:08:21.830Z,989.5
2019-03-01T04:09:22.504Z,989.5
2019-03-01T04:10:23.171Z,989.5
2019-03-01T04:11:23.841Z,989.4
2019-03-01T04:12:24.511Z,989.4
2019-03-01T04:13:25.182Z,989.4
2019-03-01T04:14:25.857Z,989.4
2019-03-01T04:15:26.524Z,989.4
2019-03-01T04:16:27.240Z,989.4
2019-03-01T04:17:27.913Z,989.4
2019-03-01T04:18:28.594Z,989.4
2019-03-01T04:19:29.252Z,989.4
2019-03-01T04:20:29.922Z,989.4
2019-03-01T04:21:30.594Z,989.4
2019-03-01T04:22:31.262Z,989.4
2019-03-01T04:23:31.932Z,989.4
2019-03-01T04:24:32.602Z,989.4
2019-03-01T04:25:33.270Z,989.4
2019-03-01T04:26:33.942Z,989.4
2019-03-01T04:27:34.662Z,989.4
2019-03-01T04:28:35.330Z,989.4
2019-03-01T04:29:35.999Z,989.4
2019-03-01T04:30:36.688Z,989.4
2019-03-01T04:31:37.381Z,989.4
2019-03-01T04:32:38.049Z,989.4
2019-03-01T04:33:38.719Z,989.3
2019-03-01T04:34:39.388Z,989.4
2019-03-01T04:35:40.060Z,989.3
2019-03-01T04:36:40.730Z,989.3
2019-03-01T04:37:41.402Z,989.3
2019-03-01T04:38:42.069Z,989.3
2019-03-01T04:39:42.740Z,989.3
2019-03-01T04:40:43.410Z,989.3
2019-03-01T04:41:44.128Z,989.3
2019-03-01T04:42:44.798Z,989.4
2019-03-01T04:43:45.470Z,989.3
2019-03-01T04:44:46.140Z,989.3
2019-03-01T04:45:46.810Z,989.3
2019-03-01T04:46:47.480Z,989.3
2019-03-01T04:47:48.151Z,989.3
2019-03-01T04:48:48.822Z,989.3
2019-03-01T04:49:49.492Z,989.3
2019-03-01T04:50:50.163Z,989.3
2019-03-01T04:51:50.883Z,989.3
2019-03-01T04:52:51.552Z,989.3
2019-03-01T04:53:52.222Z,989.2
2019-03-01T04:54:52.891Z,989.3
2019-03-01T04:55:53.562Z,989.2
2019-03-01T04:56:54.232Z,989.3
2019-03-01T04:57:54.904Z,989.2
2019-03-01T04:58:55.574Z,989.2
2019-03-01T04:59:56.244Z,989.2
2019-03-01T05:00:56.914Z,989.2
2019-03-01T05:01:57.584Z,989.2
2019-03-01T05:02:58.254Z,989.2
2019-03-01T05:03:58.924Z,989.2
2019-03-01T05:04:59.597Z,989.2
2019-03-01T05:06:00.266Z,989.2
2019-03-01T05:07:00.936Z,989.2
2019-03-01T05:08:01.606Z,989.2
2019-03-01T05:09:02.285Z,989.2
2019-03-01T05:10:02.948Z,989.2
2019-03-01T05:11:03.619Z,989.2
2019-03-01T05:12:04.288Z,989.2
2019-03-01T05:13:04.963Z,989.3
2019-03-01T05:14:05.630Z,989.2
2019-03-01T05:15:06.299Z,989.2
2019-03-01T05:16:06.969Z,989.2
2019-03-01T05:17:07.639Z,989.2
2019-03-01T05:18:08.313Z,989.2
2019-03-01T05:19:08.981Z,989.2
2019-03-01T05:20:09.652Z,989.2
2019-03-01T05:21:10.322Z,989.2
2019-03-01T05:22:10.990Z,989.2
2019-03-01T05:23:11.665Z,989.2
2019-03-01T05:24:12.331Z,989.2
2019-03-01T05:25:13.003Z,989.3
2019-03-01T05:26:13.671Z,989.2
2019-03-01T05:27:14.344Z,989.3
2019-03-01T05:28:15.012Z,989.2
2019-03-01T05:29:15.684Z,989.2
2019-03-01T05:30:16.356Z,989.3
2019-03-01T05:31:17.035Z,989.3
2019-03-01T05:32:17.705Z,989.2
2019-03-01T05:33:18.377Z,989.2
2019-03-01T05:34:19.045Z,989.2
2019-03-01T05:35:19.716Z,989.2
2019-03-01T05:36:20.386Z,989.2
2019-03-01T05:37:21.057Z,989.2
2019-03-01T05:38:22.182Z,989.2
2019-03-01T05:39:22.854Z,989.2
2019-03-01T05:40:23.525Z,989.1
2019-03-01T05:41:24.196Z,989.2
2019-03-01T05:42:24.914Z,989.2
2019-03-01T05:43:25.586Z,989.2
2019-03-01T05:44:26.305Z,989.2
2019-03-01T05:45:26.974Z,989.2
2019-03-01T05:46:27.646Z,989.2
2019-03-01T05:47:28.317Z,989.2
2019-03-01T05:48:28.986Z,989.2
2019-03-01T05:49:29.658Z,989.2
2019-03-01T05:50:30.333Z,989.1
2019-03-01T05:51:31.043Z,989.2
2019-03-01T05:52:31.716Z,989.2
2019-03-01T05:53:32.392Z,989.2
2019-03-01T05:54:33.103Z,989.2
2019-03-01T05:55:33.775Z,989.2
2019-03-01T05:56:34.448Z,989.2
2019-03-01T05:57:35.117Z,989.2
2019-03-01T05:58:35.788Z,989.3
2019-03-01T05:59:36.461Z,989.3
2019-03-01T06:00:37.128Z,989.3
2019-03-01T06:01:37.801Z,989.3
2019-03-01T06:02:38.476Z,989.2
2019-03-01T06:03:39.217Z,989.3
2019-03-01T06:04:39.855Z,989.3
2019-03-01T06:05:40.530Z,989.2
2019-03-01T06:06:41.197Z,989.3
2019-03-01T06:07:41.873Z,989.3
2019-03-01T06:08:42.541Z,989.2
2019-03-01T06:09:43.216Z,989.2
2019-03-01T06:10:43.934Z,989.3
2019-03-01T06:11:44.608Z,989.2
2019-03-01T06:12:45.281Z,989.2
2019-03-01T06:13:45.953Z,989.3
2019-03-01T06:14:46.626Z,989.3
2019-03-01T06:15:47.297Z,989.3
2019-03-01T06:16:47.970Z,989.3
2019-03-01T06:17:48.643Z,989.3
2019-03-01T06:18:49.317Z,989.3
2019-03-01T06:19:50.039Z,989.3
2019-03-01T06:20:50.713Z,989.3
2019-03-01T06:21:51.384Z,989.3
2019-03-01T06:22:52.057Z,989.3
2019-03-01T06:23:52.777Z,989.3
2019-03-01T06:24:53.450Z,989.3
2019-03-01T06:25:54.125Z,989.3
2019-03-01T06:26:54.803Z,989.3
2019-03-01T06:27:55.477Z,989.3
2019-03-01T06:28:56.150Z,989.3
2019-03-01T06:29:56.822Z,989.3
2019-03-01T06:30:57.498Z,989.3
2019-03-01T06:31:58.172Z,989.3
2019-03-01T06:32:58.845Z,989.3
2019-03-01T06:33:59.520Z,989.3
2019-03-01T06:35:00.345Z,989.3
2019-03-01T06:36:00.903Z,989.3
2019-03-01T06:37:01.576Z,989.4
2019-03-01T06:38:02.250Z,989.4
2019-03-01T06:39:02.924Z,989.3
2019-03-01T06:40:03.597Z,989.3
2019-03-01T06:41:04.273Z,989.3
2019-03-01T06:42:04.946Z,989.3
2019-03-01T06:43:05.626Z,989.3
2019-03-01T06:44:06.343Z,989.4
2019-03-01T06:45:07.021Z,989.3
2019-03-01T06:46:07.689Z,989.3
2019-03-01T06:47:08.410Z,989.3
2019-03-01T06:48:09.084Z,989.3
2019-03-01T06:49:09.761Z,989.3
2019-03-01T06:50:10.435Z,989.3
2019-03-01T06:51:11.106Z,989.3
2019-03-01T06:52:11.778Z,989.3
2019-03-01T06:53:12.454Z,989.4
2019-03-01T06:54:13.142Z,989.4
2019-03-01T06:55:13.803Z,989.4
2019-03-01T06:56:14.473Z,989.4
2019-03-01T06:57:15.149Z,989.4
2019-03-01T06:58:15.827Z,989.4
2019-03-01T06:59:16.543Z,989.4
2019-03-01T07:00:17.216Z,989.4
2019-03-01T07:01:17.891Z,989.4
2019-03-01T07:02:18.563Z,989.4
2019-03-01T07:03:19.238Z,989.4
2019-03-01T07:04:19.914Z,989.4
2019-03-01T07:05:20.587Z,989.4
2019-03-01T07:06:21.312Z,989.4
2019-03-01T07:07:21.985Z,989.4
2019-03-01T07:08:22.659Z,989.4
2019-03-01T07:09:23.333Z,989.4
2019-03-01T07:10:24.010Z,989.4
2019-03-01T07:11:24.684Z,989.4
2019-03-01T07:12:25.359Z,989.4
2019-03-01T07:13:26.032Z,989.4
2019-03-01T07:14:26.711Z,989.4
2019-03-01T07:15:27.380Z,989.5
2019-03-01T07:16:28.054Z,989.4
2019-03-01T07:17:28.728Z,989.4
2019-03-01T07:18:29.402Z,989.4
2019-03-01T07:19:30.076Z,989.4
2019-03-01T07:20:30.749Z,989.4
2019-03-01T07:21:31.423Z,989.4
2019-03-01T07:22:32.097Z,989.4
2019-03-01T07:23:36.806Z,989.5
2019-03-01T07:24:33.493Z,989.5
2019-03-01T07:25:34.167Z,989.5
2019-03-01T07:26:34.840Z,989.5
2019-03-01T07:27:35.516Z,989.5
2019-03-01T07:28:36.191Z,989.5
2019-03-01T07:29:36.864Z,989.5
2019-03-01T07:30:37.538Z,989.5
2019-03-01T07:31:38.218Z,989.5
2019-03-01T07:32:38.888Z,989.5
2019-03-01T07:33:39.564Z,989.5
2019-03-01T07:34:40.237Z,989.5
2019-03-01T07:35:40.912Z,989.5
2019-03-01T07:36:41.588Z,989.5
2019-03-01T07:37:42.273Z,989.5
2019-03-01T07:38:42.943Z,989.5
2019-03-01T07:39:43.611Z,989.5
2019-03-01T07:40:44.286Z,989.5
2019-03-01T07:41:44.962Z,989.5
2019-03-01T07:42:45.639Z,989.5
2019-03-01T07:43:46.314Z,989.5
2019-03-01T07:44:46.990Z,989.5
2019-03-01T07:45:47.668Z,989.5
2019-03-01T07:46:52.969Z,989.5
2019-03-01T07:47:50.016Z,989.5
2019-03-01T07:48:50.686Z,989.5
2019-03-01T07:49:51.362Z,989.5
2019-03-01T07:50:52.414Z,989.6
2019-03-01T07:51:53.706Z,989.5
2019-03-01T07:52:54.383Z,989.6
2019-03-01T07:53:55.060Z,989.6
2019-03-01T07:54:55.740Z,989.6
2019-03-01T07:55:56.426Z,989.6
2019-03-01T07:56:57.125Z,989.6
2019-03-01T07:57:57.812Z,989.6
2019-03-01T07:59:00.333Z,989.6
2019-03-01T08:00:00.340Z,989.6
2019-03-01T08:01:00.978Z,989.6
2019-03-01T08:02:03.892Z,989.5
2019-03-01T08:03:02.377Z,989.5
2019-03-01T08:04:03.056Z,989.5
2019-03-01T08:05:05.012Z,989.5
2019-03-01T08:06:05.404Z,989.5
2019-03-01T08:07:06.080Z,989.5
2019-03-01T08:08:06.755Z,989.5
2019-03-01T08:09:07.433Z,989.5
2019-03-01T08:10:08.118Z,989.5
2019-03-01T08:11:08.787Z,989.5
2019-03-01T08:12:09.464Z,989.5
2019-03-01T08:13:10.149Z,989.5
2019-03-01T08:14:10.868Z,989.5
2019-03-01T08:15:11.594Z,989.5
2019-03-01T08:16:12.272Z,989.5
2019-03-01T08:17:12.998Z,989.4
2019-03-01T08:18:13.676Z,989.5
2019-03-01T08:19:15.737Z,989.4
2019-03-01T08:20:16.021Z,989.4
2019-03-01T08:21:16.747Z,989.4
2019-03-01T08:22:20.769Z,989.4
2019-03-01T08:23:19.091Z,989.4
2019-03-01T08:24:19.768Z,989.3
2019-03-01T08:25:23.478Z,989.4
2019-03-01T08:26:22.118Z,989.4
2019-03-01T08:27:22.792Z,989.4
2019-03-01T08:28:23.468Z,989.4
2019-03-01T08:29:24.144Z,989.4
2019-03-01T08:30:24.847Z,989.4
2019-03-01T08:31:25.498Z,989.4
2019-03-01T08:32:27.456Z,989.4
2019-03-01T08:33:27.841Z,989.4
2019-03-01T08:34:28.518Z,989.5
2019-03-01T08:35:32.097Z,989.4
2019-03-01T08:36:30.863Z,989.4
2019-03-01T08:37:31.541Z,989.4
2019-03-01T08:38:33.366Z,989.4
2019-03-01T08:39:36.580Z,989.4
2019-03-01T08:40:34.605Z,989.4
2019-03-01T08:41:35.285Z,989.4
2019-03-01T08:42:36.421Z,989.4
2019-03-01T08:43:37.633Z,989.4
2019-03-01T08:44:38.310Z,989.4
2019-03-01T08:45:38.986Z,989.4
2019-03-01T08:46:42.044Z,989.5
2019-03-01T08:47:41.333Z,989.5
2019-03-01T08:48:42.012Z,989.5
2019-03-01T08:49:42.689Z,989.5
2019-03-01T08:50:43.365Z,989.5
2019-03-01T08:51:44.042Z,989.5
2019-03-01T08:52:44.721Z,989.6
2019-03-01T08:53:48.317Z,989.6
2019-03-01T08:54:47.068Z,989.6
2019-03-01T08:55:47.743Z,989.5
2019-03-01T08:56:50.244Z,989.5
2019-03-01T08:57:49.139Z,989.5
2019-03-01T08:58:49.815Z,989.6
2019-03-01T08:59:50.493Z,989.6
2019-03-01T09:00:59.344Z,989.6
2019-03-01T09:01:52.843Z,989.6
2019-03-01T09:02:53.567Z,989.6
2019-03-01T09:03:54.247Z,989.6
2019-03-01T09:04:54.925Z,989.5
2019-03-01T09:05:55.604Z,989.5
2019-03-01T09:06:56.312Z,989.6
2019-03-01T09:07:56.959Z,989.5
2019-03-01T09:08:57.641Z,989.5
2019-03-01T09:09:58.314Z,989.5
2019-03-01T09:10:59.539Z,989.5
2019-03-01T09:12:00.293Z,989.6
2019-03-01T09:13:00.975Z,989.7
2019-03-01T09:14:01.653Z,989.6
2019-03-01T09:15:04.462Z,989.7
2019-03-01T09:16:03.999Z,989.6
2019-03-01T09:17:04.918Z,989.7
2019-03-01T09:18:05.635Z,989.6
2019-03-01T09:19:06.316Z,989.6
2019-03-01T09:20:06.993Z,989.6
2019-03-01T09:21:12.549Z,989.7
2019-03-01T09:22:09.340Z,989.7
2019-03-01T09:23:22.575Z,989.8
2019-03-01T09:24:11.690Z,989.8
2019-03-01T09:25:12.367Z,989.8
2019-03-01T09:26:13.097Z,989.8
2019-03-01T09:27:13.773Z,989.7
2019-03-01T09:28:14.453Z,989.8
2019-03-01T09:29:18.572Z,989.8
2019-03-01T09:30:16.796Z,989.8
2019-03-01T09:31:17.838Z,989.8
2019-03-01T09:32:18.719Z,989.7
2019-03-01T09:33:21.604Z,989.8
2019-03-01T09:34:21.071Z,989.8
2019-03-01T09:35:21.753Z,989.8
2019-03-01T09:36:22.429Z,989.8
2019-03-01T09:37:23.107Z,989.7
2019-03-01T09:38:23.786Z,989.7
2019-03-01T09:39:24.464Z,989.8
2019-03-01T09:40:25.651Z,989.7
2019-03-01T09:41:26.812Z,989.7
2019-03-01T09:42:27.490Z,989.7
2019-03-01T09:43:28.606Z,989.7
2019-03-01T09:44:29.343Z,989.7
2019-03-01T09:45:36.125Z,989.7
2019-03-01T09:46:31.700Z,989.8
2019-03-01T09:47:33.508Z,989.7
2019-03-01T09:48:34.046Z,989.8
2019-03-01T09:49:34.725Z,989.8
2019-03-01T09:50:38.133Z,989.8
2019-03-01T09:51:37.076Z,989.8
2019-03-01T09:52:37.750Z,989.8
2019-03-01T09:53:38.427Z,989.8
2019-03-01T09:54:39.106Z,989.8
2019-03-01T09:55:39.784Z,989.8
2019-03-01T09:56:40.462Z,989.8
2019-03-01T09:57:41.142Z,989.8
2019-03-01T09:58:41.818Z,989.8
2019-03-01T09:59:42.495Z,989.8
2019-03-01T10:00:43.172Z,989.8
2019-03-01T10:01:43.853Z,989.8
2019-03-01T10:02:44.526Z,989.8
2019-03-01T10:03:45.252Z,989.8
2019-03-01T10:04:45.929Z,989.8
2019-03-01T10:05:46.606Z,989.9
2019-03-01T10:06:47.283Z,989.8
2019-03-01T10:07:47.961Z,989.8
2019-03-01T10:08:48.640Z,989.8
2019-03-01T10:09:49.320Z,989.8
2019-03-01T10:10:49.996Z,989.9
2019-03-01T10:11:50.675Z,989.8
2019-03-01T10:12:51.354Z,989.8
2019-03-01T10:13:52.029Z,989.8
2019-03-01T10:14:52.709Z,989.8
2019-03-01T10:15:53.394Z,989.7
2019-03-01T10:16:54.117Z,989.7
2019-03-01T10:17:54.790Z,989.7
2019-03-01T10:18:55.483Z,989.8
2019-03-01T10:19:56.148Z,989.8
2019-03-01T10:20:56.827Z,989.9
2019-03-01T10:21:57.503Z,989.8
2019-03-01T10:22:58.181Z,989.8
2019-03-01T10:23:58.861Z,989.8
2019-03-01T10:24:59.538Z,989.8
2019-03-01T10:26:00.220Z,989.8
2019-03-01T10:27:02.958Z,989.8
2019-03-01T10:28:02.613Z,989.9
2019-03-01T10:29:03.290Z,989.8
2019-03-01T10:30:03.969Z,989.8
2019-03-01T10:31:04.647Z,989.9
2019-03-01T10:32:05.327Z,989.8
2019-03-01T10:33:06.005Z,989.8
2019-03-01T10:34:06.682Z,989.9
2019-03-01T10:35:07.358Z,989.9
2019-03-01T10:36:08.036Z,989.8
2019-03-01T10:37:08.761Z,989.9
2019-03-01T10:38:09.437Z,989.9
2019-03-01T10:39:10.168Z,989.9
2019-03-01T10:40:10.844Z,989.9
2019-03-01T10:41:11.523Z,989.9
2019-03-01T10:42:12.200Z,989.9
2019-03-01T10:43:12.877Z,989.9
2019-03-01T10:44:13.555Z,989.9
2019-03-01T10:45:14.236Z,989.9
2019-03-01T10:46:14.912Z,989.9
2019-03-01T10:47:15.637Z,989.9
2019-03-01T10:48:16.316Z,989.9
2019-03-01T10:49:16.994Z,989.9
2019-03-01T10:50:17.673Z,989.9
2019-03-01T10:51:18.351Z,989.9
2019-03-01T10:52:19.029Z,989.9
2019-03-01T10:53:19.709Z,989.9
2019-03-01T10:54:20.382Z,989.9
2019-03-01T10:55:21.064Z,989.9
2019-03-01T10:56:21.789Z,990.0
2019-03-01T10:57:22.467Z,989.9
2019-03-01T10:58:23.144Z,989.9
2019-03-01T10:59:23.823Z,989.9
2019-03-01T11:00:24.503Z,989.9
2019-03-01T11:01:25.181Z,989.9
2019-03-01T11:02:25.859Z,989.9
2019-03-01T11:03:26.537Z,989.9
2019-03-01T11:04:27.216Z,989.8
2019-03-01T11:05:27.897Z,989.8
2019-03-01T11:06:28.568Z,989.8
2019-03-01T11:07:29.245Z,989.9
2019-03-01T11:08:29.927Z,989.8
2019-03-01T11:09:30.604Z,989.8
2019-03-01T11:10:31.283Z,989.8
2019-03-01T11:11:31.964Z,989.8
2019-03-01T11:12:32.640Z,989.9
2019-03-01T11:13:33.321Z,989.8
2019-03-01T11:14:34.018Z,989.9
2019-03-01T11:15:34.727Z,989.9
2019-03-01T11:16:35.406Z,989.9
2019-03-01T11:17:36.084Z,989.9
2019-03-01T11:18:36.813Z,989.9
2019-03-01T11:19:37.542Z,989.9
2019-03-01T11:20:38.226Z,989.8
2019-03-01T11:21:38.901Z,989.9
2019-03-01T11:22:39.579Z,989.9
2019-03-01T11:23:40.261Z,989.9
2019-03-01T11:24:40.989Z,989.9
2019-03-01T11:25:41.669Z,989.9
2019-03-01T11:26:42.353Z,989.8
2019-03-01T11:27:43.027Z,989.9
2019-03-01T11:28:43.709Z,989.9
2019-03-01T11:29:44.387Z,989.9
2019-03-01T11:30:45.092Z,989.8
2019-03-01T11:31:45.747Z,989.8
2019-03-01T11:32:46.427Z,989.9
2019-03-01T11:33:47.105Z,989.9
2019-03-01T11:34:47.788Z,990.0
2019-03-01T11:35:48.465Z,990.0
2019-03-01T11:36:49.143Z,990.0
2019-03-01T11:37:49.822Z,990.0
2019-03-01T11:38:50.500Z,989.9
2019-03-01T11:39:51.182Z,990.0
2019-03-01T11:40:51.860Z,989.9
2019-03-01T11:41:52.538Z,989.9
2019-03-01T11:42:53.219Z,989.9
2019-03-01T11:43:53.906Z,989.9
2019-03-01T11:44:54.585Z,989.9
2019-03-01T11:45:55.265Z,989.9
2019-03-01T11:46:55.944Z,990.0
2019-03-01T11:47:56.625Z,989.9
2019-03-01T11:48:57.350Z,989.9
2019-03-01T11:49:58.032Z,990.0
2019-03-01T11:50:58.710Z,990.0
2019-03-01T11:51:59.390Z,990.0
2019-03-01T11:53:00.071Z,990.0
2019-03-01T11:54:00.752Z,990.0
2019-03-01T11:55:01.429Z,989.9
2019-03-01T11:56:02.110Z,990.0
2019-03-01T11:57:02.842Z,989.9
2019-03-01T11:58:03.515Z,990.0
2019-03-01T11:59:04.195Z,990.0
2019-03-01T12:00:04.875Z,990.0
2019-03-01T12:01:05.553Z,989.9
2019-03-01T12:02:06.240Z,990.0
2019-03-01T12:03:06.912Z,990.0
2019-03-01T12:04:07.591Z,990.0
2019-03-01T12:05:08.271Z,990.0
2019-03-01T12:06:08.954Z,990.0
2019-03-01T12:07:09.631Z,990.0
2019-03-01T12:08:10.312Z,990.0
2019-03-01T12:09:10.988Z,990.0
2019-03-01T12:10:12.449Z,990.0
2019-03-01T12:11:13.157Z,990.0
2019-03-01T12:12:13.835Z,990.0
2019-03-01T12:13:14.514Z,990.0
2019-03-01T12:14:15.196Z,990.0
2019-03-01T12:15:15.874Z,990.0
2019-03-01T12:16:16.554Z,990.0
2019-03-01T12:17:17.232Z,990.0
2019-03-01T12:18:17.912Z,990.0
2019-03-01T12:19:18.592Z,989.9
2019-03-01T12:20:19.314Z,990.0
2019-03-01T12:21:19.988Z,990.0
2019-03-01T12:22:20.715Z,990.0
2019-03-01T12:23:21.394Z,990.0
2019-03-01T12:24:22.074Z,990.0
2019-03-01T12:25:22.754Z,990.0
2019-03-01T12:26:23.430Z,990.0
2019-03-01T12:27:24.109Z,990.0
2019-03-01T12:28:24.834Z,990.0
2019-03-01T12:29:25.563Z,990.0
2019-03-01T12:30:26.241Z,990.0
2019-03-01T12:31:26.922Z,990.0
2019-03-01T12:32:27.598Z,990.0
2019-03-01T12:33:28.278Z,990.0
2019-03-01T12:34:28.955Z,990.0
2019-03-01T12:35:29.632Z,990.0
2019-03-01T12:36:30.310Z,990.0
2019-03-01T12:37:30.990Z,990.0
2019-03-01T12:38:31.713Z,990.0
2019-03-01T12:39:32.388Z,990.0
2019-03-01T12:40:33.065Z,990.0
2019-03-01T12:41:33.745Z,990.0
2019-03-01T12:42:34.421Z,990.0
2019-03-01T12:43:35.096Z,990.0
2019-03-01T12:44:35.780Z,990.1
2019-03-01T12:45:36.455Z,990.0
2019-03-01T12:46:37.175Z,990.1
2019-03-01T12:47:37.853Z,990.0
2019-03-01T12:48:38.532Z,990.1
2019-03-01T12:49:39.207Z,990.0
2019-03-01T12:50:39.884Z,990.1
2019-03-01T12:51:40.563Z,990.1
2019-03-01T12:52:41.239Z,990.1
2019-03-01T12:53:41.915Z,990.1
2019-03-01T12:54:42.593Z,990.1
2019-03-01T12:55:43.271Z,990.1
2019-03-01T12:56:43.947Z,990.1
2019-03-01T12:57:44.650Z,990.1
2019-03-01T12:58:45.349Z,990.1
2019-03-01T12:59:46.027Z,990.1
2019-03-01T13:00:46.703Z,990.2
2019-03-01T13:01:47.381Z,990.1